sensor_id;sensor_type;location;lat;lon;timestamp;P1;durP1;ratioP1;P2;durP2;ratioP2
43801;SDS011;29429;51.074;13.764;2023-10-31T00:00:44;4.72;;;3.60;;
43801;SDS011;29429;51.074;13.764;2023-10-31T00:03:11;8.10;;;4.97;;
43801;SDS011;29429;51.074;13.764;2023-10-31T00:05:39;5.40;;;3.72;;
43801;SDS011;29429;51.074;13.764;2023-10-31T00:08:06;6.13;;;3.53;;
43801;SDS011;29429;51.074;13.764;2023-10-31T00:10:33;8.70;;;4.82;;
43801;SDS011;29429;51.074;13.764;2023-10-31T00:13:00;7.88;;;5.20;;
43801;SDS011;29429;51.074;13.764;2023-10-31T00:15:27;7.25;;;4.20;;
43801;SDS011;29429;51.074;13.764;2023-10-31T00:17:55;7.22;;;4.88;;
43801;SDS011;29429;51.074;13.764;2023-10-31T00:20:22;5.85;;;4.00;;
43801;SDS011;29429;51.074;13.764;2023-10-31T00:22:49;7.70;;;4.15;;
43801;SDS011;29429;51.074;13.764;2023-10-31T00:25:16;6.32;;;4.68;;
43801;SDS011;29429;51.074;13.764;2023-10-31T00:27:43;7.20;;;4.47;;
43801;SDS011;29429;51.074;13.764;2023-10-31T00:30:10;7.57;;;5.00;;
43801;SDS011;29429;51.074;13.764;2023-10-31T00:32:37;8.43;;;5.18;;
43801;SDS011;29429;51.074;13.764;2023-10-31T00:35:04;5.68;;;4.15;;
43801;SDS011;29429;51.074;13.764;2023-10-31T00:37:32;7.80;;;4.90;;
43801;SDS011;29429;51.074;13.764;2023-10-31T00:39:59;8.27;;;4.93;;
43801;SDS011;29429;51.074;13.764;2023-10-31T00:42:26;7.80;;;4.55;;
43801;SDS011;29429;51.074;13.764;2023-10-31T00:44:53;7.93;;;4.45;;
43801;SDS011;29429;51.074;13.764;2023-10-31T00:47:20;5.80;;;4.25;;
43801;SDS011;29429;51.074;13.764;2023-10-31T00:49:48;5.18;;;4.63;;
43801;SDS011;29429;51.074;13.764;2023-10-31T00:52:15;5.90;;;4.30;;
43801;SDS011;29429;51.074;13.764;2023-10-31T00:54:42;8.82;;;5.00;;
43801;SDS011;29429;51.074;13.764;2023-10-31T00:57:09;7.80;;;5.75;;
43801;SDS011;29429;51.074;13.764;2023-10-31T00:59:36;8.77;;;5.47;;
43801;SDS011;29429;51.074;13.764;2023-10-31T01:02:05;9.23;;;5.93;;
43801;SDS011;29429;51.074;13.764;2023-10-31T01:04:32;7.47;;;5.97;;
43801;SDS011;29429;51.074;13.764;2023-10-31T01:06:59;5.65;;;4.50;;
43801;SDS011;29429;51.074;13.764;2023-10-31T01:09:26;9.13;;;6.13;;
43801;SDS011;29429;51.074;13.764;2023-10-31T01:11:53;7.03;;;5.15;;
43801;SDS011;29429;51.074;13.764;2023-10-31T01:14:20;9.70;;;5.63;;
43801;SDS011;29429;51.074;13.764;2023-10-31T01:16:47;9.23;;;6.03;;
43801;SDS011;29429;51.074;13.764;2023-10-31T01:19:14;5.03;;;4.55;;
43801;SDS011;29429;51.074;13.764;2023-10-31T01:21:41;7.68;;;5.55;;
43801;SDS011;29429;51.074;13.764;2023-10-31T01:24:08;7.10;;;5.47;;
43801;SDS011;29429;51.074;13.764;2023-10-31T01:26:35;6.65;;;4.85;;
43801;SDS011;29429;51.074;13.764;2023-10-31T01:29:02;9.32;;;5.10;;
43801;SDS011;29429;51.074;13.764;2023-10-31T01:31:29;8.65;;;5.15;;
43801;SDS011;29429;51.074;13.764;2023-10-31T01:33:58;10.13;;;6.05;;
43801;SDS011;29429;51.074;13.764;2023-10-31T01:36:25;7.30;;;4.55;;
43801;SDS011;29429;51.074;13.764;2023-10-31T01:38:55;6.15;;;5.00;;
43801;SDS011;29429;51.074;13.764;2023-10-31T01:41:22;6.20;;;4.22;;
43801;SDS011;29429;51.074;13.764;2023-10-31T01:43:49;5.80;;;4.20;;
43801;SDS011;29429;51.074;13.764;2023-10-31T01:46:16;5.95;;;4.72;;
43801;SDS011;29429;51.074;13.764;2023-10-31T01:48:43;6.07;;;5.13;;
43801;SDS011;29429;51.074;13.764;2023-10-31T01:51:10;9.23;;;5.65;;
43801;SDS011;29429;51.074;13.764;2023-10-31T01:53:38;6.07;;;4.90;;
43801;SDS011;29429;51.074;13.764;2023-10-31T01:56:06;5.78;;;4.57;;
43801;SDS011;29429;51.074;13.764;2023-10-31T01:58:34;6.82;;;5.40;;
43801;SDS011;29429;51.074;13.764;2023-10-31T02:01:04;6.75;;;5.50;;
43801;SDS011;29429;51.074;13.764;2023-10-31T02:03:33;8.30;;;5.25;;
43801;SDS011;29429;51.074;13.764;2023-10-31T02:06:00;7.40;;;5.35;;
43801;SDS011;29429;51.074;13.764;2023-10-31T02:08:27;5.93;;;5.10;;
43801;SDS011;29429;51.074;13.764;2023-10-31T02:10:54;8.15;;;5.95;;
43801;SDS011;29429;51.074;13.764;2023-10-31T02:13:21;8.18;;;5.25;;
43801;SDS011;29429;51.074;13.764;2023-10-31T02:15:49;10.07;;;6.70;;
43801;SDS011;29429;51.074;13.764;2023-10-31T02:18:16;12.00;;;6.78;;
43801;SDS011;29429;51.074;13.764;2023-10-31T02:20:43;8.40;;;6.32;;
43801;SDS011;29429;51.074;13.764;2023-10-31T02:23:11;12.68;;;7.05;;
43801;SDS011;29429;51.074;13.764;2023-10-31T02:25:38;6.75;;;5.68;;
43801;SDS011;29429;51.074;13.764;2023-10-31T02:28:05;8.82;;;6.00;;
43801;SDS011;29429;51.074;13.764;2023-10-31T02:30:31;10.68;;;7.43;;
43801;SDS011;29429;51.074;13.764;2023-10-31T02:33:00;6.40;;;5.55;;
43801;SDS011;29429;51.074;13.764;2023-10-31T02:35:28;7.60;;;5.97;;
43801;SDS011;29429;51.074;13.764;2023-10-31T02:37:55;6.72;;;5.68;;
43801;SDS011;29429;51.074;13.764;2023-10-31T02:40:22;9.30;;;6.88;;
43801;SDS011;29429;51.074;13.764;2023-10-31T02:42:50;8.40;;;6.22;;
43801;SDS011;29429;51.074;13.764;2023-10-31T02:45:17;9.35;;;7.25;;
43801;SDS011;29429;51.074;13.764;2023-10-31T02:47:44;7.85;;;6.07;;
43801;SDS011;29429;51.074;13.764;2023-10-31T02:50:11;8.95;;;6.20;;
43801;SDS011;29429;51.074;13.764;2023-10-31T02:52:39;11.68;;;8.68;;
43801;SDS011;29429;51.074;13.764;2023-10-31T02:55:06;11.20;;;8.52;;
43801;SDS011;29429;51.074;13.764;2023-10-31T02:57:33;13.95;;;8.90;;
43801;SDS011;29429;51.074;13.764;2023-10-31T03:00:00;12.43;;;9.15;;
43801;SDS011;29429;51.074;13.764;2023-10-31T03:02:28;12.18;;;9.65;;
43801;SDS011;29429;51.074;13.764;2023-10-31T03:04:56;13.40;;;10.27;;
43801;SDS011;29429;51.074;13.764;2023-10-31T03:07:24;14.13;;;9.98;;
43801;SDS011;29429;51.074;13.764;2023-10-31T03:09:50;11.07;;;9.65;;
43801;SDS011;29429;51.074;13.764;2023-10-31T03:12:18;12.25;;;10.40;;
43801;SDS011;29429;51.074;13.764;2023-10-31T03:14:45;10.93;;;9.25;;
43801;SDS011;29429;51.074;13.764;2023-10-31T03:17:12;11.80;;;9.15;;
43801;SDS011;29429;51.074;13.764;2023-10-31T03:19:39;15.00;;;11.48;;
43801;SDS011;29429;51.074;13.764;2023-10-31T03:22:05;12.32;;;10.40;;
43801;SDS011;29429;51.074;13.764;2023-10-31T03:24:32;11.57;;;10.30;;
43801;SDS011;29429;51.074;13.764;2023-10-31T03:27:00;14.07;;;10.52;;
43801;SDS011;29429;51.074;13.764;2023-10-31T03:29:26;14.48;;;11.63;;
43801;SDS011;29429;51.074;13.764;2023-10-31T03:31:54;14.63;;;11.40;;
43801;SDS011;29429;51.074;13.764;2023-10-31T03:34:20;14.55;;;11.50;;
43801;SDS011;29429;51.074;13.764;2023-10-31T03:36:47;15.00;;;10.93;;
43801;SDS011;29429;51.074;13.764;2023-10-31T03:39:14;12.52;;;10.30;;
43801;SDS011;29429;51.074;13.764;2023-10-31T03:41:42;20.80;;;12.93;;
43801;SDS011;29429;51.074;13.764;2023-10-31T03:44:09;13.70;;;10.52;;
43801;SDS011;29429;51.074;13.764;2023-10-31T03:46:36;19.42;;;15.23;;
43801;SDS011;29429;51.074;13.764;2023-10-31T03:49:03;18.70;;;13.98;;
43801;SDS011;29429;51.074;13.764;2023-10-31T03:51:30;18.00;;;14.27;;
43801;SDS011;29429;51.074;13.764;2023-10-31T03:53:57;15.82;;;14.02;;
43801;SDS011;29429;51.074;13.764;2023-10-31T03:56:24;18.45;;;13.88;;
43801;SDS011;29429;51.074;13.764;2023-10-31T03:58:52;17.45;;;13.82;;
43801;SDS011;29429;51.074;13.764;2023-10-31T04:01:19;21.42;;;15.45;;
43801;SDS011;29429;51.074;13.764;2023-10-31T04:03:46;17.83;;;13.43;;
43801;SDS011;29429;51.074;13.764;2023-10-31T04:06:13;17.63;;;12.98;;
43801;SDS011;29429;51.074;13.764;2023-10-31T04:08:41;17.27;;;12.40;;
43801;SDS011;29429;51.074;13.764;2023-10-31T04:11:08;15.25;;;10.32;;
43801;SDS011;29429;51.074;13.764;2023-10-31T04:13:35;13.02;;;10.00;;
43801;SDS011;29429;51.074;13.764;2023-10-31T04:16:02;15.05;;;10.15;;
43801;SDS011;29429;51.074;13.764;2023-10-31T04:18:30;13.82;;;9.43;;
43801;SDS011;29429;51.074;13.764;2023-10-31T04:20:57;10.18;;;7.57;;
43801;SDS011;29429;51.074;13.764;2023-10-31T04:23:24;11.48;;;7.85;;
43801;SDS011;29429;51.074;13.764;2023-10-31T04:25:51;11.57;;;7.53;;
43801;SDS011;29429;51.074;13.764;2023-10-31T04:28:19;10.30;;;7.88;;
43801;SDS011;29429;51.074;13.764;2023-10-31T04:30:45;9.30;;;7.30;;
43801;SDS011;29429;51.074;13.764;2023-10-31T04:33:12;9.50;;;8.15;;
43801;SDS011;29429;51.074;13.764;2023-10-31T04:35:40;9.88;;;7.68;;
43801;SDS011;29429;51.074;13.764;2023-10-31T04:38:06;10.35;;;6.95;;
43801;SDS011;29429;51.074;13.764;2023-10-31T04:40:34;8.77;;;6.28;;
43801;SDS011;29429;51.074;13.764;2023-10-31T04:43:01;9.43;;;6.88;;
43801;SDS011;29429;51.074;13.764;2023-10-31T04:45:28;8.40;;;6.20;;
43801;SDS011;29429;51.074;13.764;2023-10-31T04:47:55;10.05;;;6.53;;
43801;SDS011;29429;51.074;13.764;2023-10-31T04:50:22;7.70;;;6.15;;
43801;SDS011;29429;51.074;13.764;2023-10-31T04:52:49;7.32;;;5.82;;
43801;SDS011;29429;51.074;13.764;2023-10-31T04:55:16;9.73;;;6.45;;
43801;SDS011;29429;51.074;13.764;2023-10-31T04:57:44;7.88;;;6.68;;
43801;SDS011;29429;51.074;13.764;2023-10-31T05:00:11;9.48;;;8.48;;
43801;SDS011;29429;51.074;13.764;2023-10-31T05:02:38;10.57;;;8.23;;
43801;SDS011;29429;51.074;13.764;2023-10-31T05:05:05;8.88;;;7.82;;
43801;SDS011;29429;51.074;13.764;2023-10-31T05:07:33;8.20;;;6.43;;
43801;SDS011;29429;51.074;13.764;2023-10-31T05:10:00;5.85;;;4.88;;
43801;SDS011;29429;51.074;13.764;2023-10-31T05:12:27;6.57;;;4.70;;
43801;SDS011;29429;51.074;13.764;2023-10-31T05:14:54;5.10;;;3.97;;
43801;SDS011;29429;51.074;13.764;2023-10-31T05:17:21;4.00;;;3.40;;
43801;SDS011;29429;51.074;13.764;2023-10-31T05:19:49;4.93;;;3.70;;
43801;SDS011;29429;51.074;13.764;2023-10-31T05:22:16;7.18;;;3.70;;
43801;SDS011;29429;51.074;13.764;2023-10-31T05:24:43;4.63;;;3.72;;
43801;SDS011;29429;51.074;13.764;2023-10-31T05:27:10;4.65;;;3.38;;
43801;SDS011;29429;51.074;13.764;2023-10-31T05:29:38;4.57;;;3.03;;
43801;SDS011;29429;51.074;13.764;2023-10-31T05:32:05;3.65;;;2.85;;
43801;SDS011;29429;51.074;13.764;2023-10-31T05:34:32;3.88;;;3.08;;
43801;SDS011;29429;51.074;13.764;2023-10-31T05:36:59;3.25;;;2.70;;
43801;SDS011;29429;51.074;13.764;2023-10-31T05:39:26;3.13;;;2.72;;
43801;SDS011;29429;51.074;13.764;2023-10-31T05:41:53;4.20;;;3.30;;
43801;SDS011;29429;51.074;13.764;2023-10-31T05:44:20;3.83;;;2.38;;
43801;SDS011;29429;51.074;13.764;2023-10-31T05:46:47;3.97;;;2.88;;
43801;SDS011;29429;51.074;13.764;2023-10-31T05:49:14;3.45;;;2.10;;
43801;SDS011;29429;51.074;13.764;2023-10-31T05:51:41;3.05;;;1.52;;
43801;SDS011;29429;51.074;13.764;2023-10-31T05:54:09;2.42;;;1.58;;
43801;SDS011;29429;51.074;13.764;2023-10-31T05:56:36;1.73;;;1.50;;
43801;SDS011;29429;51.074;13.764;2023-10-31T05:59:03;3.42;;;1.30;;
43801;SDS011;29429;51.074;13.764;2023-10-31T06:01:30;2.35;;;1.70;;
43801;SDS011;29429;51.074;13.764;2023-10-31T06:03:57;2.08;;;1.40;;
43801;SDS011;29429;51.074;13.764;2023-10-31T06:06:24;3.22;;;1.70;;
43801;SDS011;29429;51.074;13.764;2023-10-31T06:08:51;1.63;;;1.30;;
43801;SDS011;29429;51.074;13.764;2023-10-31T06:11:18;1.58;;;1.25;;
43801;SDS011;29429;51.074;13.764;2023-10-31T06:13:45;1.67;;;1.10;;
43801;SDS011;29429;51.074;13.764;2023-10-31T06:16:14;1.60;;;1.00;;
43801;SDS011;29429;51.074;13.764;2023-10-31T06:18:41;0.88;;;0.80;;
43801;SDS011;29429;51.074;13.764;2023-10-31T06:21:08;1.63;;;1.08;;
43801;SDS011;29429;51.074;13.764;2023-10-31T06:23:36;1.67;;;0.85;;
43801;SDS011;29429;51.074;13.764;2023-10-31T06:26:04;1.17;;;0.90;;
43801;SDS011;29429;51.074;13.764;2023-10-31T06:28:31;2.10;;;0.60;;
43801;SDS011;29429;51.074;13.764;2023-10-31T06:31:05;2.17;;;0.60;;
43801;SDS011;29429;51.074;13.764;2023-10-31T06:33:32;1.45;;;0.60;;
43801;SDS011;29429;51.074;13.764;2023-10-31T06:35:59;3.20;;;0.63;;
43801;SDS011;29429;51.074;13.764;2023-10-31T06:38:27;1.00;;;0.55;;
43801;SDS011;29429;51.074;13.764;2023-10-31T06:40:54;1.38;;;0.63;;
43801;SDS011;29429;51.074;13.764;2023-10-31T06:43:23;0.52;;;0.50;;
43801;SDS011;29429;51.074;13.764;2023-10-31T06:45:50;0.75;;;0.57;;
43801;SDS011;29429;51.074;13.764;2023-10-31T06:48:17;1.98;;;0.60;;
43801;SDS011;29429;51.074;13.764;2023-10-31T06:50:44;0.75;;;0.55;;
43801;SDS011;29429;51.074;13.764;2023-10-31T06:53:11;0.80;;;0.40;;
43801;SDS011;29429;51.074;13.764;2023-10-31T06:55:38;0.85;;;0.40;;
43801;SDS011;29429;51.074;13.764;2023-10-31T06:58:05;1.80;;;0.35;;
43801;SDS011;29429;51.074;13.764;2023-10-31T07:00:32;0.55;;;0.40;;
43801;SDS011;29429;51.074;13.764;2023-10-31T07:02:59;2.42;;;0.60;;
43801;SDS011;29429;51.074;13.764;2023-10-31T07:05:31;0.52;;;0.40;;
43801;SDS011;29429;51.074;13.764;2023-10-31T07:07:58;0.50;;;0.30;;
43801;SDS011;29429;51.074;13.764;2023-10-31T07:10:26;0.98;;;0.47;;
43801;SDS011;29429;51.074;13.764;2023-10-31T07:12:52;0.32;;;0.28;;
43801;SDS011;29429;51.074;13.764;2023-10-31T07:15:20;1.15;;;0.47;;
43801;SDS011;29429;51.074;13.764;2023-10-31T07:17:47;0.63;;;0.47;;
43801;SDS011;29429;51.074;13.764;2023-10-31T07:20:14;0.68;;;0.30;;
43801;SDS011;29429;51.074;13.764;2023-10-31T07:22:41;2.05;;;0.50;;
43801;SDS011;29429;51.074;13.764;2023-10-31T07:25:08;0.70;;;0.40;;
43801;SDS011;29429;51.074;13.764;2023-10-31T07:27:35;0.30;;;0.30;;
43801;SDS011;29429;51.074;13.764;2023-10-31T07:30:03;0.50;;;0.25;;
43801;SDS011;29429;51.074;13.764;2023-10-31T07:32:32;0.63;;;0.47;;
43801;SDS011;29429;51.074;13.764;2023-10-31T07:34:59;0.50;;;0.40;;
43801;SDS011;29429;51.074;13.764;2023-10-31T07:37:26;1.83;;;0.60;;
43801;SDS011;29429;51.074;13.764;2023-10-31T07:39:53;1.67;;;0.55;;
43801;SDS011;29429;51.074;13.764;2023-10-31T07:42:20;1.05;;;0.70;;
43801;SDS011;29429;51.074;13.764;2023-10-31T07:44:47;0.70;;;0.60;;
43801;SDS011;29429;51.074;13.764;2023-10-31T07:47:14;1.50;;;0.68;;
43801;SDS011;29429;51.074;13.764;2023-10-31T07:49:41;3.47;;;1.23;;
43801;SDS011;29429;51.074;13.764;2023-10-31T07:52:08;1.15;;;0.80;;
43801;SDS011;29429;51.074;13.764;2023-10-31T07:54:38;2.08;;;0.80;;
43801;SDS011;29429;51.074;13.764;2023-10-31T07:57:07;0.60;;;0.57;;
43801;SDS011;29429;51.074;13.764;2023-10-31T07:59:34;0.90;;;0.70;;
43801;SDS011;29429;51.074;13.764;2023-10-31T08:02:01;1.45;;;0.50;;
43801;SDS011;29429;51.074;13.764;2023-10-31T08:04:29;1.15;;;0.80;;
43801;SDS011;29429;51.074;13.764;2023-10-31T08:06:56;1.27;;;0.80;;
43801;SDS011;29429;51.074;13.764;2023-10-31T08:09:23;3.55;;;1.05;;
43801;SDS011;29429;51.074;13.764;2023-10-31T08:11:50;1.17;;;0.70;;
43801;SDS011;29429;51.074;13.764;2023-10-31T08:14:17;1.58;;;0.57;;
43801;SDS011;29429;51.074;13.764;2023-10-31T08:16:44;1.08;;;0.50;;
43801;SDS011;29429;51.074;13.764;2023-10-31T08:19:11;2.03;;;0.75;;
43801;SDS011;29429;51.074;13.764;2023-10-31T08:21:38;1.25;;;0.77;;
43801;SDS011;29429;51.074;13.764;2023-10-31T08:24:05;0.73;;;0.50;;
43801;SDS011;29429;51.074;13.764;2023-10-31T08:26:33;0.68;;;0.60;;
43801;SDS011;29429;51.074;13.764;2023-10-31T08:29:00;0.50;;;0.40;;
43801;SDS011;29429;51.074;13.764;2023-10-31T08:31:27;1.70;;;0.40;;
43801;SDS011;29429;51.074;13.764;2023-10-31T08:33:54;2.05;;;0.88;;
43801;SDS011;29429;51.074;13.764;2023-10-31T08:36:21;0.70;;;0.60;;
43801;SDS011;29429;51.074;13.764;2023-10-31T08:38:48;0.50;;;0.40;;
43801;SDS011;29429;51.074;13.764;2023-10-31T08:41:15;1.55;;;0.68;;
43801;SDS011;29429;51.074;13.764;2023-10-31T08:43:46;0.70;;;0.30;;
43801;SDS011;29429;51.074;13.764;2023-10-31T08:46:13;0.82;;;0.43;;
43801;SDS011;29429;51.074;13.764;2023-10-31T08:48:40;3.50;;;0.50;;
43801;SDS011;29429;51.074;13.764;2023-10-31T08:51:07;1.60;;;0.90;;
43801;SDS011;29429;51.074;13.764;2023-10-31T08:53:34;2.05;;;0.90;;
43801;SDS011;29429;51.074;13.764;2023-10-31T08:56:01;2.22;;;1.00;;
43801;SDS011;29429;51.074;13.764;2023-10-31T08:58:28;1.70;;;0.88;;
43801;SDS011;29429;51.074;13.764;2023-10-31T09:00:55;3.50;;;1.15;;
43801;SDS011;29429;51.074;13.764;2023-10-31T09:03:22;2.17;;;0.73;;
43801;SDS011;29429;51.074;13.764;2023-10-31T09:05:50;1.40;;;0.60;;
43801;SDS011;29429;51.074;13.764;2023-10-31T09:08:16;9.98;;;0.85;;
43801;SDS011;29429;51.074;13.764;2023-10-31T09:10:44;1.20;;;0.40;;
43801;SDS011;29429;51.074;13.764;2023-10-31T09:13:13;1.52;;;0.50;;
43801;SDS011;29429;51.074;13.764;2023-10-31T09:15:41;1.65;;;0.20;;
43801;SDS011;29429;51.074;13.764;2023-10-31T09:18:08;0.85;;;0.30;;
43801;SDS011;29429;51.074;13.764;2023-10-31T09:20:35;1.73;;;0.20;;
43801;SDS011;29429;51.074;13.764;2023-10-31T09:23:02;1.63;;;0.68;;
43801;SDS011;29429;51.074;13.764;2023-10-31T09:25:29;0.63;;;0.32;;
43801;SDS011;29429;51.074;13.764;2023-10-31T09:27:56;0.47;;;0.40;;
43801;SDS011;29429;51.074;13.764;2023-10-31T09:30:25;2.30;;;0.30;;
43801;SDS011;29429;51.074;13.764;2023-10-31T09:32:52;0.90;;;0.43;;
43801;SDS011;29429;51.074;13.764;2023-10-31T09:35:20;0.63;;;0.30;;
43801;SDS011;29429;51.074;13.764;2023-10-31T09:37:47;0.50;;;0.40;;
43801;SDS011;29429;51.074;13.764;2023-10-31T09:40:15;0.88;;;0.50;;
43801;SDS011;29429;51.074;13.764;2023-10-31T09:42:43;0.73;;;0.47;;
43801;SDS011;29429;51.074;13.764;2023-10-31T09:45:12;0.65;;;0.50;;
43801;SDS011;29429;51.074;13.764;2023-10-31T09:47:40;0.70;;;0.40;;
43801;SDS011;29429;51.074;13.764;2023-10-31T09:50:09;1.05;;;0.50;;
43801;SDS011;29429;51.074;13.764;2023-10-31T09:52:37;2.25;;;0.30;;
43801;SDS011;29429;51.074;13.764;2023-10-31T09:55:05;1.70;;;0.40;;
43801;SDS011;29429;51.074;13.764;2023-10-31T09:57:34;0.68;;;0.40;;
43801;SDS011;29429;51.074;13.764;2023-10-31T10:00:01;0.60;;;0.20;;
43801;SDS011;29429;51.074;13.764;2023-10-31T10:02:35;1.58;;;0.50;;
43801;SDS011;29429;51.074;13.764;2023-10-31T10:05:02;0.43;;;0.20;;
43801;SDS011;29429;51.074;13.764;2023-10-31T10:07:30;0.40;;;0.30;;
43801;SDS011;29429;51.074;13.764;2023-10-31T10:10:02;0.45;;;0.20;;
43801;SDS011;29429;51.074;13.764;2023-10-31T10:12:29;0.60;;;0.38;;
43801;SDS011;29429;51.074;13.764;2023-10-31T10:14:58;0.88;;;0.50;;
43801;SDS011;29429;51.074;13.764;2023-10-31T10:17:25;1.58;;;0.60;;
43801;SDS011;29429;51.074;13.764;2023-10-31T10:20:07;0.98;;;0.50;;
43801;SDS011;29429;51.074;13.764;2023-10-31T10:22:38;1.23;;;0.43;;
43801;SDS011;29429;51.074;13.764;2023-10-31T10:25:10;0.63;;;0.40;;
43801;SDS011;29429;51.074;13.764;2023-10-31T10:27:41;1.15;;;0.60;;
43801;SDS011;29429;51.074;13.764;2023-10-31T10:30:10;1.20;;;0.45;;
43801;SDS011;29429;51.074;13.764;2023-10-31T10:32:39;0.55;;;0.30;;
43801;SDS011;29429;51.074;13.764;2023-10-31T10:35:06;0.88;;;0.38;;
43801;SDS011;29429;51.074;13.764;2023-10-31T10:37:36;0.35;;;0.20;;
43801;SDS011;29429;51.074;13.764;2023-10-31T10:40:05;0.30;;;0.30;;
43801;SDS011;29429;51.074;13.764;2023-10-31T10:42:44;0.68;;;0.47;;
43801;SDS011;29429;51.074;13.764;2023-10-31T10:45:15;0.47;;;0.30;;
43801;SDS011;29429;51.074;13.764;2023-10-31T10:47:46;1.05;;;0.50;;
43801;SDS011;29429;51.074;13.764;2023-10-31T10:50:16;0.75;;;0.35;;
43801;SDS011;29429;51.074;13.764;2023-10-31T10:55:49;0.57;;;0.50;;
43801;SDS011;29429;51.074;13.764;2023-10-31T10:58:33;2.53;;;0.70;;
43801;SDS011;29429;51.074;13.764;2023-10-31T11:01:10;1.30;;;0.80;;
43801;SDS011;29429;51.074;13.764;2023-10-31T11:03:38;1.00;;;0.60;;
43801;SDS011;29429;51.074;13.764;2023-10-31T11:06:06;2.45;;;0.80;;
43801;SDS011;29429;51.074;13.764;2023-10-31T11:08:33;2.55;;;0.77;;
43801;SDS011;29429;51.074;13.764;2023-10-31T11:11:03;0.82;;;0.57;;
43801;SDS011;29429;51.074;13.764;2023-10-31T11:13:32;1.40;;;0.52;;
43801;SDS011;29429;51.074;13.764;2023-10-31T11:16:06;0.80;;;0.40;;
43801;SDS011;29429;51.074;13.764;2023-10-31T11:18:42;0.80;;;0.55;;
43801;SDS011;29429;51.074;13.764;2023-10-31T11:21:10;0.80;;;0.55;;
43801;SDS011;29429;51.074;13.764;2023-10-31T11:23:37;2.05;;;0.68;;
43801;SDS011;29429;51.074;13.764;2023-10-31T11:26:08;0.65;;;0.47;;
43801;SDS011;29429;51.074;13.764;2023-10-31T11:28:36;0.95;;;0.40;;
43801;SDS011;29429;51.074;13.764;2023-10-31T11:31:03;1.35;;;0.50;;
43801;SDS011;29429;51.074;13.764;2023-10-31T11:33:30;1.45;;;0.40;;
43801;SDS011;29429;51.074;13.764;2023-10-31T11:36:01;0.80;;;0.60;;
43801;SDS011;29429;51.074;13.764;2023-10-31T11:38:36;0.82;;;0.40;;
43801;SDS011;29429;51.074;13.764;2023-10-31T11:46:05;0.60;;;0.30;;
43801;SDS011;29429;51.074;13.764;2023-10-31T11:48:44;0.35;;;0.20;;
43801;SDS011;29429;51.074;13.764;2023-10-31T11:51:14;1.50;;;0.50;;
43801;SDS011;29429;51.074;13.764;2023-10-31T11:53:41;0.50;;;0.30;;
43801;SDS011;29429;51.074;13.764;2023-10-31T11:56:17;1.98;;;0.38;;
43801;SDS011;29429;51.074;13.764;2023-10-31T11:58:55;0.50;;;0.30;;
43801;SDS011;29429;51.074;13.764;2023-10-31T12:01:28;0.55;;;0.20;;
43801;SDS011;29429;51.074;13.764;2023-10-31T12:03:56;0.63;;;0.22;;
43801;SDS011;29429;51.074;13.764;2023-10-31T12:06:23;1.67;;;0.30;;
43801;SDS011;29429;51.074;13.764;2023-10-31T12:08:50;0.55;;;0.30;;
43801;SDS011;29429;51.074;13.764;2023-10-31T12:11:21;1.08;;;0.40;;
43801;SDS011;29429;51.074;13.764;2023-10-31T12:13:54;0.90;;;0.40;;
43801;SDS011;29429;51.074;13.764;2023-10-31T12:24:17;2.50;;;0.40;;
43801;SDS011;29429;51.074;13.764;2023-10-31T12:26:45;0.52;;;0.30;;
43801;SDS011;29429;51.074;13.764;2023-10-31T12:31:49;0.40;;;0.30;;
43801;SDS011;29429;51.074;13.764;2023-10-31T12:34:21;0.60;;;0.47;;
43801;SDS011;29429;51.074;13.764;2023-10-31T12:36:50;1.48;;;0.70;;
43801;SDS011;29429;51.074;13.764;2023-10-31T12:39:23;0.82;;;0.60;;
43801;SDS011;29429;51.074;13.764;2023-10-31T12:41:53;2.88;;;0.63;;
43801;SDS011;29429;51.074;13.764;2023-10-31T12:44:24;1.00;;;0.60;;
43801;SDS011;29429;51.074;13.764;2023-10-31T12:46:55;1.15;;;0.70;;
43801;SDS011;29429;51.074;13.764;2023-10-31T12:49:22;2.35;;;0.65;;
43801;SDS011;29429;51.074;13.764;2023-10-31T12:54:31;0.90;;;0.60;;
43801;SDS011;29429;51.074;13.764;2023-10-31T12:57:08;0.60;;;0.38;;
43801;SDS011;29429;51.074;13.764;2023-10-31T12:59:37;0.93;;;0.53;;
43801;SDS011;29429;51.074;13.764;2023-10-31T13:02:05;1.20;;;0.85;;
43801;SDS011;29429;51.074;13.764;2023-10-31T13:04:33;1.02;;;0.70;;
43801;SDS011;29429;51.074;13.764;2023-10-31T13:07:07;1.02;;;0.60;;
43801;SDS011;29429;51.074;13.764;2023-10-31T13:09:35;3.05;;;0.70;;
43801;SDS011;29429;51.074;13.764;2023-10-31T13:12:09;1.77;;;0.77;;
43801;SDS011;29429;51.074;13.764;2023-10-31T13:14:39;1.10;;;0.60;;
43801;SDS011;29429;51.074;13.764;2023-10-31T13:17:06;0.77;;;0.40;;
43801;SDS011;29429;51.074;13.764;2023-10-31T13:19:33;0.40;;;0.40;;
43801;SDS011;29429;51.074;13.764;2023-10-31T13:22:00;1.00;;;0.70;;
43801;SDS011;29429;51.074;13.764;2023-10-31T13:24:27;1.17;;;0.80;;
43801;SDS011;29429;51.074;13.764;2023-10-31T13:26:54;1.10;;;0.60;;
43801;SDS011;29429;51.074;13.764;2023-10-31T13:29:21;1.58;;;0.93;;
43801;SDS011;29429;51.074;13.764;2023-10-31T13:31:52;1.58;;;0.90;;
43801;SDS011;29429;51.074;13.764;2023-10-31T13:34:19;1.70;;;0.73;;
43801;SDS011;29429;51.074;13.764;2023-10-31T13:36:46;1.02;;;0.60;;
43801;SDS011;29429;51.074;13.764;2023-10-31T13:39:16;1.23;;;0.70;;
43801;SDS011;29429;51.074;13.764;2023-10-31T13:41:43;1.55;;;0.98;;
43801;SDS011;29429;51.074;13.764;2023-10-31T13:44:10;2.25;;;0.65;;
43801;SDS011;29429;51.074;13.764;2023-10-31T13:46:37;1.92;;;1.02;;
43801;SDS011;29429;51.074;13.764;2023-10-31T13:49:04;2.13;;;0.93;;
43801;SDS011;29429;51.074;13.764;2023-10-31T13:51:33;1.83;;;0.75;;
43801;SDS011;29429;51.074;13.764;2023-10-31T13:54:00;2.45;;;0.70;;
43801;SDS011;29429;51.074;13.764;2023-10-31T13:56:27;1.02;;;0.63;;
43801;SDS011;29429;51.074;13.764;2023-10-31T13:58:54;1.45;;;0.63;;
43801;SDS011;29429;51.074;13.764;2023-10-31T14:01:21;1.45;;;0.50;;
43801;SDS011;29429;51.074;13.764;2023-10-31T14:03:51;1.23;;;0.57;;
43801;SDS011;29429;51.074;13.764;2023-10-31T14:06:18;1.48;;;0.50;;
43801;SDS011;29429;51.074;13.764;2023-10-31T14:08:46;1.08;;;0.50;;
43801;SDS011;29429;51.074;13.764;2023-10-31T14:11:13;1.02;;;0.60;;
43801;SDS011;29429;51.074;13.764;2023-10-31T14:13:40;1.70;;;0.50;;
43801;SDS011;29429;51.074;13.764;2023-10-31T14:16:09;0.68;;;0.50;;
43801;SDS011;29429;51.074;13.764;2023-10-31T14:18:38;0.70;;;0.50;;
43801;SDS011;29429;51.074;13.764;2023-10-31T14:21:05;2.17;;;0.50;;
43801;SDS011;29429;51.074;13.764;2023-10-31T14:23:32;1.50;;;0.50;;
43801;SDS011;29429;51.074;13.764;2023-10-31T14:25:59;0.60;;;0.40;;
43801;SDS011;29429;51.074;13.764;2023-10-31T14:28:26;1.67;;;0.63;;
43801;SDS011;29429;51.074;13.764;2023-10-31T14:30:53;0.80;;;0.50;;
43801;SDS011;29429;51.074;13.764;2023-10-31T14:33:20;1.75;;;0.45;;
43801;SDS011;29429;51.074;13.764;2023-10-31T14:35:47;1.17;;;0.50;;
43801;SDS011;29429;51.074;13.764;2023-10-31T14:38:14;1.40;;;0.40;;
43801;SDS011;29429;51.074;13.764;2023-10-31T14:40:42;0.40;;;0.30;;
43801;SDS011;29429;51.074;13.764;2023-10-31T14:43:09;0.70;;;0.40;;
43801;SDS011;29429;51.074;13.764;2023-10-31T14:45:35;0.73;;;0.60;;
43801;SDS011;29429;51.074;13.764;2023-10-31T14:48:03;1.08;;;0.63;;
43801;SDS011;29429;51.074;13.764;2023-10-31T14:50:30;1.02;;;0.40;;
43801;SDS011;29429;51.074;13.764;2023-10-31T14:52:57;0.68;;;0.50;;
43801;SDS011;29429;51.074;13.764;2023-10-31T14:55:24;1.58;;;0.60;;